Time;durP1;ratioP1;P1;durP2;ratioP2;P2;SDS_P1;SDS_P2;PMS_P1;PMS_P2;Temp;Humidity;BMP_temperature;BMP_pressure;BME280_temperature;BME280_humidity;BME280_pressure;Samples;Min_cycle;Max_cycle;Signal;HPM_P1;HPM_P2
2021/10/21 00:00:10;;;;;;;25.15;15.25;;;22.00;55.40;;;;;;4984603;28;20422;-53
2021/10/21 00:02:37;;;;;;;25.77;14.75;;;22.00;55.40;;;;;;4985144;28;20092;-57
2021/10/21 00:05:04;;;;;;;27.90;16.08;;;22.00;55.40;;;;;;4984630;28;20058;-56
2021/10/21 00:07:30;;;;;;;26.75;15.20;;;22.00;55.40;;;;;;4985364;28;20387;-55
2021/10/21 00:09:56;;;;;;;25.00;15.00;;;22.00;55.50;;;;;;4990303;28;20049;-57
2021/10/21 00:12:22;;;;;;;23.88;14.68;;;22.00;55.40;;;;;;4990958;28;20045;-58
2021/10/21 00:14:48;;;;;;;24.25;14.93;;;22.00;55.40;;;;;;4990840;28;20466;-57
2021/10/21 00:17:14;;;;;;;24.05;15.75;;;22.00;55.40;;;;;;4990517;28;20038;-56
2021/10/21 00:19:39;;;;;;;24.17;14.85;;;22.00;55.40;;;;;;4986425;28;20027;-53
2021/10/21 00:22:05;;;;;;;26.38;15.70;;;22.00;55.40;;;;;;4981228;28;20121;-60
2021/10/21 00:24:31;;;;;;;23.45;14.18;;;22.00;55.40;;;;;;4983635;28;20037;-52
2021/10/21 00:26:56;;;;;;;23.10;14.23;;;22.00;55.40;;;;;;4991106;28;20022;-54
2021/10/21 00:29:22;;;;;;;25.73;15.40;;;22.00;55.40;;;;;;4990368;28;20026;-55
2021/10/21 00:31:47;;;;;;;24.73;14.43;;;22.00;55.40;;;;;;4981689;28;20058;-59
2021/10/21 00:34:16;;;;;;;24.48;14.45;;;22.00;55.40;;;;;;4986902;28;20142;-59
2021/10/21 00:36:46;;;;;;;22.98;13.95;;;21.90;55.40;;;;;;4989279;28;20033;-55
2021/10/21 00:39:12;;;;;;;;;;;21.90;55.40;;;;;;4988869;28;20620;-55
2021/10/21 00:41:38;;;;;;;24.17;13.57;;;21.90;55.40;;;;;;4977281;28;19914;-53
2021/10/21 00:44:09;;;;;;;23.05;14.35;;;21.90;55.40;;;;;;4986678;28;20379;-62
2021/10/21 00:46:35;;;;;;;23.15;13.35;;;22.00;55.40;;;;;;4990280;28;20069;-49
2021/10/21 00:49:03;;;;;;;23.40;14.32;;;21.90;55.90;;;;;;4990735;28;20030;-54
2021/10/21 00:51:29;;;;;;;22.67;14.30;;;21.90;55.40;;;;;;4985627;28;20469;-57
2021/10/21 00:53:54;;;;;;;22.23;13.80;;;21.90;55.40;;;;;;4989676;28;20360;-51
2021/10/21 00:56:21;;;;;;;22.00;13.45;;;21.90;55.40;;;;;;4990390;28;20080;-57
2021/10/21 00:58:50;;;;;;;21.13;12.80;;;21.90;55.40;;;;;;4989846;28;20030;-53
2021/10/21 01:01:16;;;;;;;20.58;12.65;;;21.90;55.40;;;;;;4988983;28;20498;-56
2021/10/21 01:03:42;;;;;;;22.15;13.68;;;21.90;55.40;;;;;;4979069;28;20090;-58
2021/10/21 01:06:09;;;;;;;22.02;13.93;;;21.90;55.40;;;;;;4988894;28;20484;-59
2021/10/21 01:08:35;;;;;;;21.55;13.90;;;21.90;55.40;;;;;;4988745;28;20027;-61
2021/10/21 01:11:02;;;;;;;21.20;12.73;;;21.90;55.40;;;;;;4990217;28;20085;-61
2021/10/21 01:13:28;;;;;;;20.67;13.27;;;21.90;55.40;;;;;;4990115;28;20062;-57
2021/10/21 01:16:05;;;;;;;19.98;12.55;;;21.90;55.40;;;;;;4988993;28;20066;-61
2021/10/21 01:18:31;;;;;;;20.65;13.05;;;21.90;55.40;;;;;;4988720;28;20146;-60
2021/10/21 01:20:58;;;;;;;20.30;12.38;;;21.90;55.40;;;;;;4987758;28;20411;-55
2021/10/21 01:23:24;;;;;;;20.95;13.50;;;21.90;55.40;;;;;;4981553;28;20038;-57
2021/10/21 01:25:49;;;;;;;20.15;13.02;;;21.90;55.40;;;;;;4983967;28;20040;-56
2021/10/21 01:28:15;;;;;;;19.25;11.98;;;21.90;55.40;;;;;;4988774;28;20027;-58
2021/10/21 01:30:40;;;;;;;19.33;13.27;;;21.90;55.40;;;;;;4989052;28;20142;-62
2021/10/21 01:33:06;;;;;;;18.98;11.55;;;21.90;55.40;;;;;;4987508;28;20519;-58
2021/10/21 01:35:32;;;;;;;17.33;12.00;;;21.90;55.40;;;;;;4982817;28;20026;-54
2021/10/21 01:37:57;;;;;;;20.15;12.40;;;21.90;55.40;;;;;;4987493;28;20134;-56
2021/10/21 01:40:23;;;;;;;18.42;12.23;;;21.90;55.40;;;;;;4982187;28;20093;-60
2021/10/21 01:42:49;;;;;;;18.48;12.65;;;21.90;55.40;;;;;;4988516;28;20030;-54
2021/10/21 01:45:29;;;;;;;17.90;11.75;;;21.90;55.40;;;;;;4989345;28;20467;-54
2021/10/21 01:47:56;;;;;;;19.38;11.98;;;21.90;55.40;;;;;;4988874;28;20082;-57
2021/10/21 01:50:23;;;;;;;20.88;12.40;;;21.90;55.40;;;;;;4988163;28;20112;-60
2021/10/21 01:52:50;;;;;;;18.15;11.77;;;21.90;55.40;;;;;;4987317;28;20807;-58
2021/10/21 01:55:17;;;;;;;18.30;11.23;;;21.90;55.40;;;;;;4989497;28;20033;-60
2021/10/21 01:57:43;;;;;;;17.55;11.40;;;21.90;55.40;;;;;;4988136;28;20335;-54
2021/10/21 02:00:14;;;;;;;22.45;11.93;;;21.90;55.40;;;;;;4988614;28;20424;-55
2021/10/21 02:02:42;;;;;;;17.98;11.43;;;21.90;55.40;;;;;;4988167;28;20105;-60
2021/10/21 02:05:08;;;;;;;17.77;11.65;;;21.90;55.40;;;;;;4987873;28;20029;-54
2021/10/21 02:07:34;;;;;;;18.27;11.27;;;21.80;55.80;;;;;;4986364;28;20054;-56
2021/10/21 02:10:00;;;;;;;19.05;12.30;;;21.90;55.40;;;;;;4988387;28;20136;-57
2021/10/21 02:12:26;;;;;;;16.75;11.40;;;21.80;55.30;;;;;;4988561;28;20035;-57
2021/10/21 02:14:52;;;;;;;17.38;11.60;;;21.80;55.30;;;;;;4988410;28;20038;-53
2021/10/21 02:17:22;;;;;;;18.40;12.00;;;21.80;55.30;;;;;;4986426;28;20156;-57
2021/10/21 02:19:48;;;;;;;17.67;11.27;;;21.80;55.30;;;;;;4988069;28;20459;-57
2021/10/21 02:22:13;;;;;;;16.73;11.27;;;21.80;55.30;;;;;;4985212;28;20046;-58
2021/10/21 02:24:39;;;;;;;18.15;11.10;;;21.80;55.30;;;;;;4983375;28;20621;-53
2021/10/21 02:27:04;;;;;;;17.70;11.10;;;21.80;55.30;;;;;;4981614;28;20022;-58
2021/10/21 02:29:30;;;;;;;16.73;10.85;;;21.80;55.80;;;;;;4985442;28;20101;-53
2021/10/21 02:31:56;;;;;;;17.05;11.13;;;21.80;55.30;;;;;;4987274;28;20097;-56
2021/10/21 02:34:21;;;;;;;17.48;10.73;;;21.80;55.30;;;;;;4985527;28;20064;-57
2021/10/21 02:36:47;;;;;;;16.40;10.82;;;21.90;55.40;;;;;;4984575;28;20120;-55
2021/10/21 02:39:13;;;;;;;16.92;11.40;;;21.80;55.30;;;;;;4976846;28;20026;-54
2021/10/21 02:41:38;;;;;;;16.52;10.73;;;21.80;55.30;;;;;;4978855;28;20030;-58
2021/10/21 02:44:04;;;;;;;16.42;11.15;;;21.80;55.30;;;;;;4988653;28;20029;-56
2021/10/21 02:46:30;;;;;;;16.58;11.00;;;21.80;55.30;;;;;;4981286;28;20053;-54
2021/10/21 02:48:55;;;;;;;17.67;11.18;;;21.80;55.30;;;;;;4986320;28;20457;-59
2021/10/21 02:51:21;;;;;;;17.48;10.35;;;21.80;55.30;;;;;;4986469;28;20042;-59
2021/10/21 02:53:48;;;;;;;16.38;11.30;;;21.80;55.30;;;;;;4986783;28;20034;-59
2021/10/21 02:56:14;;;;;;;15.48;10.77;;;21.80;55.30;;;;;;4980644;28;20026;-56
2021/10/21 02:58:40;;;;;;;16.10;10.93;;;21.80;55.30;;;;;;4984915;28;20109;-54
2021/10/21 03:01:05;;;;;;;16.75;10.93;;;21.80;55.40;;;;;;4982025;28;20125;-55
2021/10/21 03:03:31;;;;;;;16.13;9.80;;;21.80;55.30;;;;;;4988131;28;20018;-59
2021/10/21 03:05:56;;;;;;;17.05;10.65;;;21.80;55.30;;;;;;4986229;28;20014;-53
2021/10/21 03:08:22;;;;;;;14.82;10.30;;;21.80;55.30;;;;;;4986090;28;20038;-57
2021/10/21 03:10:48;;;;;;;15.52;10.43;;;21.80;55.30;;;;;;4985927;28;20034;-59
2021/10/21 03:13:14;;;;;;;14.23;9.93;;;21.80;55.30;;;;;;4987802;28;20607;-55
2021/10/21 03:15:40;;;;;;;17.08;9.82;;;21.80;55.30;;;;;;4987130;28;20038;-54
2021/10/21 03:18:06;;;;;;;16.30;10.35;;;21.80;55.30;;;;;;4986723;28;20045;-56
2021/10/21 03:20:34;;;;;;;16.05;10.32;;;21.80;55.30;;;;;;4983965;28;20030;-56
2021/10/21 03:23:00;;;;;;;16.85;10.35;;;21.80;55.40;;;;;;4986038;28;20529;-55
2021/10/21 03:25:26;;;;;;;15.32;10.05;;;21.80;55.30;;;;;;4987672;28;20035;-53
2021/10/21 03:27:51;;;;;;;14.88;9.43;;;21.80;55.30;;;;;;4986330;28;20031;-54
2021/10/21 03:30:17;;;;;;;15.85;10.38;;;21.80;55.40;;;;;;4982118;28;20371;-57
2021/10/21 03:32:43;;;;;;;14.15;9.63;;;21.80;55.40;;;;;;4986852;28;20034;-55
2021/10/21 03:35:08;;;;;;;13.82;9.07;;;21.80;55.30;;;;;;4987202;28;20090;-59
2021/10/21 03:37:34;;;;;;;14.73;9.80;;;21.80;55.30;;;;;;4984302;28;20109;-57
2021/10/21 03:40:00;;;;;;;13.52;9.05;;;21.80;55.30;;;;;;4981375;28;20114;-59
2021/10/21 03:42:26;;;;;;;11.85;8.65;;;21.80;55.40;;;;;;4985212;28;20027;-55
2021/10/21 03:44:54;;;;;;;14.10;8.93;;;21.70;55.30;;;;;;4993758;28;20034;-56
2021/10/21 03:47:20;;;;;;;12.60;8.73;;;21.70;55.30;;;;;;4985671;28;20077;-59
2021/10/21 03:49:46;;;;;;;14.30;9.15;;;21.70;55.30;;;;;;4988639;28;20523;-53
2021/10/21 03:52:12;;;;;;;12.07;8.73;;;21.70;55.30;;;;;;4988538;28;20034;-56
2021/10/21 03:54:38;;;;;;;14.07;9.40;;;21.70;55.30;;;;;;4990253;28;20501;-51
2021/10/21 03:57:03;;;;;;;12.27;8.52;;;21.70;55.30;;;;;;4991080;28;20029;-59
2021/10/21 03:59:29;;;;;;;12.07;8.52;;;21.70;55.30;;;;;;4995569;28;20078;-58
2021/10/21 04:01:54;;;;;;;12.52;8.07;;;21.70;55.30;;;;;;4992077;28;20305;-59
2021/10/21 04:04:20;;;;;;;12.02;7.75;;;21.70;55.30;;;;;;4994236;28;20030;-56
2021/10/21 04:06:47;;;;;;;11.93;7.35;;;21.70;55.20;;;;;;4992124;28;20713;-56
2021/10/21 04:09:13;;;;;;;12.38;8.10;;;21.70;55.30;;;;;;4992626;28;20054;-55
2021/10/21 04:11:38;;;;;;;11.45;8.02;;;21.70;55.20;;;;;;4987173;28;20039;-55
2021/10/21 04:14:04;;;;;;;11.23;7.72;;;21.70;55.20;;;;;;4984403;28;20077;-52
2021/10/21 04:16:30;;;;;;;13.60;8.55;;;21.70;55.20;;;;;;4985656;28;20087;-54
2021/10/21 04:18:56;;;;;;;11.48;7.72;;;21.70;55.20;;;;;;4993714;28;20073;-53
2021/10/21 04:21:21;;;;;;;9.02;6.90;;;21.70;55.20;;;;;;4986226;28;20034;-54
2021/10/21 04:23:47;;;;;;;10.32;6.95;;;21.70;55.20;;;;;;4993402;28;20551;-56
2021/10/21 04:26:13;;;;;;;10.30;7.38;;;21.70;55.10;;;;;;4996211;28;20030;-56
2021/10/21 04:28:39;;;;;;;10.32;6.90;;;21.70;55.10;;;;;;4992697;28;20081;-56
2021/10/21 04:31:05;;;;;;;9.27;6.80;;;21.70;55.10;;;;;;4992228;28;20189;-57
2021/10/21 04:33:32;;;;;;;8.75;6.25;;;21.70;55.10;;;;;;4994457;28;20073;-57
2021/10/21 04:35:58;;;;;;;10.50;7.00;;;21.70;55.00;;;;;;4991813;28;20034;-57
2021/10/21 04:38:23;;;;;;;8.55;6.00;;;21.70;55.00;;;;;;4990760;28;20023;-52
2021/10/21 04:40:49;;;;;;;8.50;5.97;;;21.70;55.00;;;;;;4982397;28;20797;-53
2021/10/21 04:43:15;;;;;;;8.23;6.00;;;21.70;54.90;;;;;;4983368;28;20089;-55
2021/10/21 04:45:40;;;;;;;8.85;6.07;;;21.70;54.90;;;;;;4992666;28;20061;-53
2021/10/21 04:48:06;;;;;;;9.65;5.88;;;21.60;54.90;;;;;;4993044;28;20058;-54
2021/10/21 04:50:32;;;;;;;8.77;5.82;;;21.70;54.90;;;;;;4991825;28;20050;-54
2021/10/21 04:52:57;;;;;;;8.10;5.40;;;21.70;54.90;;;;;;4991267;28;20042;-55
2021/10/21 04:55:24;;;;;;;8.68;6.00;;;21.60;54.90;;;;;;4982182;28;20109;-58
2021/10/21 04:57:50;;;;;;;8.77;5.85;;;21.70;54.90;;;;;;4986697;28;20146;-61
2021/10/21 05:00:17;;;;;;;8.77;6.00;;;21.60;54.90;;;;;;4987536;28;20117;-59
2021/10/21 05:02:43;;;;;;;8.38;5.53;;;21.60;55.40;;;;;;4987914;28;20019;-57
2021/10/21 05:05:09;;;;;;;7.97;5.55;;;21.60;54.90;;;;;;4985232;28;20054;-55
2021/10/21 05:07:35;;;;;;;8.93;5.85;;;21.60;54.90;;;;;;4987292;28;20030;-56
2021/10/21 05:10:00;;;;;;;7.40;5.57;;;21.60;55.00;;;;;;4984684;28;20038;-57
2021/10/21 05:12:26;;;;;;;9.50;5.93;;;21.60;54.90;;;;;;4989404;28;20530;-49
2021/10/21 05:14:52;;;;;;;7.53;5.18;;;21.60;54.90;;;;;;4987143;28;20031;-53
2021/10/21 05:17:19;;;;;;;9.27;5.47;;;21.60;54.90;;;;;;4988813;28;20509;-54
2021/10/21 05:19:45;;;;;;;8.88;5.90;;;21.60;54.90;;;;;;4989932;28;20129;-57
2021/10/21 05:22:11;;;;;;;8.00;5.55;;;21.60;54.90;;;;;;4987409;28;20121;-53
2021/10/21 05:24:36;;;;;;;8.82;5.60;;;21.60;54.90;;;;;;4986445;28;20458;-57
2021/10/21 05:27:03;;;;;;;7.25;5.22;;;21.60;54.90;;;;;;4987829;28;20027;-55
2021/10/21 05:29:29;;;;;;;8.23;5.35;;;21.60;54.90;;;;;;4990046;28;20352;-56
2021/10/21 05:31:55;;;;;;;7.20;4.75;;;21.60;54.90;;;;;;4988900;28;20057;-55
2021/10/21 05:34:21;;;;;;;7.68;5.22;;;21.60;54.90;;;;;;4986752;28;20057;-55
2021/10/21 05:36:48;;;;;;;7.75;5.35;;;21.60;54.90;;;;;;4987958;28;20058;-54
2021/10/21 05:39:14;;;;;;;6.97;4.90;;;21.60;55.00;;;;;;4988881;28;20029;-49
2021/10/21 05:41:40;;;;;;;7.05;5.22;;;21.60;54.90;;;;;;4988087;28;20018;-56
2021/10/21 05:44:06;;;;;;;7.10;4.88;;;21.60;54.90;;;;;;4984039;28;20030;-55
2021/10/21 05:46:32;;;;;;;6.93;4.85;;;21.60;54.90;;;;;;4988730;28;20026;-57
2021/10/21 05:48:57;;;;;;;7.20;4.75;;;21.60;54.90;;;;;;4989854;28;20031;-54
2021/10/21 05:51:23;;;;;;;6.47;4.72;;;21.60;54.90;;;;;;4986563;28;20030;-56
2021/10/21 05:53:49;;;;;;;6.78;4.70;;;21.60;54.90;;;;;;4984582;28;20085;-51
2021/10/21 05:56:15;;;;;;;7.20;5.25;;;21.60;54.90;;;;;;4980449;28;20100;-58
2021/10/21 05:58:40;;;;;;;6.10;4.60;;;21.60;54.90;;;;;;4989030;28;20037;-53
2021/10/21 06:01:06;;;;;;;7.13;4.97;;;21.60;54.80;;;;;;4987588;28;20043;-56
2021/10/21 06:03:36;;;;;;;6.60;4.60;;;21.60;54.80;;;;;;4989532;28;20459;-56
2021/10/21 06:06:05;;;;;;;;;;;21.60;54.90;;;;;;4979634;28;20022;-57
2021/10/21 06:08:30;;;;;;;7.32;5.03;;;21.50;54.80;;;;;;4979615;28;19952;-55
2021/10/21 06:10:56;;;;;;;7.35;5.00;;;21.60;54.80;;;;;;4987490;28;20066;-56
2021/10/21 06:13:22;;;;;;;7.07;4.70;;;21.60;54.80;;;;;;4989011;28;20468;-53
2021/10/21 06:15:47;;;;;;;6.63;4.68;;;21.50;54.70;;;;;;4986046;28;20114;-52
2021/10/21 06:18:14;;;;;;;6.00;4.35;;;21.50;54.70;;;;;;4988592;28;20114;-53
2021/10/21 06:20:42;;;;;;;6.32;4.20;;;21.50;54.70;;;;;;4983053;28;20045;-59
2021/10/21 06:23:08;;;;;;;6.35;4.35;;;21.50;54.70;;;;;;4987103;28;20118;-51
2021/10/21 06:25:34;;;;;;;5.72;3.80;;;21.50;54.70;;;;;;4982517;28;20189;-55
2021/10/21 06:27:59;;;;;;;6.57;4.00;;;21.50;54.70;;;;;;4988278;28;20507;-55
2021/10/21 06:30:25;;;;;;;6.53;4.55;;;21.50;54.70;;;;;;4986500;28;20050;-57
2021/10/21 06:32:51;;;;;;;6.38;4.38;;;21.50;54.70;;;;;;4988170;28;20049;-50
2021/10/21 06:35:16;;;;;;;7.95;5.05;;;21.50;54.70;;;;;;4984031;28;20035;-54
2021/10/21 06:37:47;;;;;;;5.63;4.07;;;21.50;54.70;;;;;;4984974;28;20037;-55
2021/10/21 06:40:14;;;;;;;6.20;4.05;;;21.50;54.70;;;;;;4982079;28;20042;-51
2021/10/21 06:42:40;;;;;;;6.30;4.35;;;21.50;54.70;;;;;;4987579;28;20840;-54
2021/10/21 06:45:06;;;;;;;5.97;4.15;;;21.50;54.60;;;;;;4989294;28;20093;-54
2021/10/21 06:47:34;;;;;;;6.18;3.85;;;21.50;54.60;;;;;;4982483;28;20117;-53
2021/10/21 06:50:00;;;;;;;6.25;4.05;;;21.50;54.70;;;;;;4984767;28;20108;-55
2021/10/21 06:52:26;;;;;;;5.00;3.65;;;21.50;54.60;;;;;;4982046;28;20084;-54
2021/10/21 06:54:51;;;;;;;5.85;4.43;;;21.50;54.60;;;;;;4987109;28;20045;-49
2021/10/21 06:57:18;;;;;;;6.22;3.70;;;21.50;54.60;;;;;;4986887;28;20026;-54
2021/10/21 06:59:44;;;;;;;5.78;3.95;;;21.50;54.60;;;;;;5000003;28;20033;-55
2021/10/21 07:02:10;;;;;;;5.97;3.70;;;21.50;54.60;;;;;;4981321;28;20046;-57
2021/10/21 07:04:35;;;;;;;6.03;3.65;;;21.50;54.60;;;;;;4988466;28;20410;-55
2021/10/21 07:07:01;;;;;;;5.47;3.70;;;21.50;54.60;;;;;;4985022;28;20394;-54
2021/10/21 07:09:27;;;;;;;5.70;3.83;;;21.50;54.60;;;;;;4981347;28;20102;-53
2021/10/21 07:11:52;;;;;;;5.20;3.45;;;21.50;54.60;;;;;;4978830;28;20076;-58
2021/10/21 07:14:18;;;;;;;4.93;3.45;;;21.50;54.60;;;;;;4988201;28;20034;-58
2021/10/21 07:16:43;;;;;;;6.03;4.00;;;21.40;54.50;;;;;;4974377;28;20069;-58
2021/10/21 07:19:10;;;;;;;5.45;4.10;;;21.50;54.60;;;;;;4982679;28;20106;-54
2021/10/21 07:21:36;;;;;;;5.55;3.72;;;21.50;54.50;;;;;;4985379;28;20069;-58
2021/10/21 07:24:02;;;;;;;6.00;3.90;;;21.50;54.50;;;;;;4986655;28;20062;-57
2021/10/21 07:26:27;;;;;;;4.97;3.58;;;21.50;54.60;;;;;;4986918;28;20035;-55
2021/10/21 07:28:53;;;;;;;5.07;3.60;;;21.50;54.50;;;;;;4988166;28;20030;-52
2021/10/21 07:31:20;;;;;;;5.95;3.72;;;21.40;54.50;;;;;;4985825;28;20045;-58
2021/10/21 07:33:46;;;;;;;5.63;4.05;;;21.50;54.50;;;;;;4987675;28;20403;-53
2021/10/21 07:36:12;;;;;;;5.07;3.30;;;21.50;54.50;;;;;;4986162;28;20031;-57
2021/10/21 07:38:38;;;;;;;5.13;3.42;;;21.50;54.50;;;;;;4986267;28;20176;-58
2021/10/21 07:41:04;;;;;;;4.97;3.63;;;21.40;54.50;;;;;;4986612;28;20054;-58
2021/10/21 07:43:30;;;;;;;6.00;3.85;;;21.50;54.60;;;;;;4988131;28;20026;-56
2021/10/21 07:45:56;;;;;;;4.90;3.42;;;21.40;54.50;;;;;;4977511;28;20114;-56
2021/10/21 07:48:22;;;;;;;5.35;3.63;;;21.40;54.50;;;;;;4987516;28;20056;-51
2021/10/21 07:50:48;;;;;;;5.40;3.72;;;21.40;54.50;;;;;;4983676;28;20090;-59
2021/10/21 07:53:14;;;;;;;5.05;3.55;;;21.40;54.50;;;;;;4982352;28;20408;-55
2021/10/21 07:55:39;;;;;;;5.03;3.25;;;21.40;54.40;;;;;;4984431;28;20118;-53
2021/10/21 07:58:06;;;;;;;5.72;3.50;;;21.40;54.40;;;;;;4986526;28;20179;-59
2021/10/21 08:00:32;;;;;;;4.65;3.30;;;21.40;54.40;;;;;;4983150;28;20034;-57
2021/10/21 08:02:59;;;;;;;4.95;3.47;;;21.40;54.50;;;;;;4980500;28;20455;-59
2021/10/21 08:05:24;;;;;;;5.45;3.50;;;21.40;54.40;;;;;;4986567;28;20645;-59
2021/10/21 08:07:50;;;;;;;5.25;3.47;;;21.40;54.40;;;;;;4985601;28;20041;-59
2021/10/21 08:10:18;;;;;;;5.47;3.53;;;21.40;54.40;;;;;;4988114;28;20026;-54
2021/10/21 08:12:47;;;;;;;4.88;3.22;;;21.40;54.40;;;;;;4981006;28;20707;-54
2021/10/21 08:15:14;;;;;;;4.50;3.20;;;21.40;54.40;;;;;;4981832;28;20030;-58
2021/10/21 08:17:41;;;;;;;5.57;3.63;;;21.40;54.40;;;;;;4986278;28;20085;-56
2021/10/21 08:20:10;;;;;;;5.05;3.40;;;21.40;54.40;;;;;;4986263;28;20092;-55
2021/10/21 08:22:36;;;;;;;5.55;3.40;;;21.40;54.40;;;;;;4979567;28;20084;-55
2021/10/21 08:25:02;;;;;;;4.60;3.08;;;21.40;54.40;;;;;;4987656;28;20022;-56
2021/10/21 08:27:28;;;;;;;4.95;3.20;;;21.40;54.40;;;;;;4986652;28;20689;-55
2021/10/21 08:29:53;;;;;;;4.82;3.45;;;21.40;54.30;;;;;;4989740;28;20030;-56
2021/10/21 08:32:19;;;;;;;4.50;2.95;;;21.40;54.30;;;;;;4977798;28;20393;-53
2021/10/21 08:34:45;;;;;;;4.63;3.35;;;21.40;54.30;;;;;;4991194;28;20026;-55
2021/10/21 08:37:10;;;;;;;4.47;2.92;;;21.40;54.30;;;;;;4988209;28;20033;-58
2021/10/21 08:39:40;;;;;;;4.60;3.00;;;21.40;54.30;;;;;;4989491;28;20030;-58
2021/10/21 08:42:06;;;;;;;4.70;3.05;;;21.40;54.30;;;;;;4983276;28;20046;-53
2021/10/21 08:44:34;;;;;;;4.40;3.00;;;21.40;54.30;;;;;;4988241;28;20042;-55
2021/10/21 08:47:00;;;;;;;4.50;3.13;;;21.40;54.30;;;;;;4984618;28;20085;-54
2021/10/21 08:49:27;;;;;;;4.28;2.90;;;21.40;54.30;;;;;;4990397;28;20030;-55
2021/10/21 08:51:56;;;;;;;4.15;3.13;;;21.40;54.30;;;;;;4986733;28;20034;-56
2021/10/21 08:54:23;;;;;;;4.80;2.88;;;21.40;54.30;;;;;;4989119;28;20030;-55
2021/10/21 08:56:49;;;;;;;4.53;3.00;;;21.40;54.30;;;;;;4987860;28;20089;-59
2021/10/21 08:59:14;;;;;;;5.25;3.20;;;21.40;54.30;;;;;;4990548;28;20030;-56
2021/10/21 09:01:41;;;;;;;4.82;3.08;;;21.40;54.30;;;;;;4977993;28;20039;-51
2021/10/21 09:09:20;;;;;;;4.65;2.80;;;21.40;54.30;;;;;;4989220;28;20039;-56
2021/10/21 09:12:00;;;;;;;5.05;3.00;;;21.40;54.30;;;;;;4989926;28;20109;-56
2021/10/21 09:14:43;;;;;;;4.30;3.00;;;21.40;54.30;;;;;;4990678;28;20064;-55
2021/10/21 09:17:11;;;;;;;4.00;2.80;;;21.40;54.30;;;;;;4987912;28;20669;-57
2021/10/21 09:19:38;;;;;;;4.45;3.22;;;21.40;54.30;;;;;;4989957;28;20482;-55
2021/10/21 09:22:06;;;;;;;4.57;2.75;;;21.30;54.20;;;;;;4981609;28;20030;-53
2021/10/21 09:24:40;;;;;;;4.50;3.03;;;21.40;54.30;;;;;;4989824;28;20019;-56
2021/10/21 09:27:09;;;;;;;4.55;3.15;;;21.40;54.30;;;;;;4987787;28;20023;-56
2021/10/21 09:29:47;;;;;;;4.28;2.70;;;21.30;54.30;;;;;;4988932;28;20450;-53
2021/10/21 09:32:21;;;;;;;3.80;2.65;;;21.30;54.20;;;;;;4982478;28;20190;-54
2021/10/21 09:34:53;;;;;;;3.88;2.75;;;21.40;54.30;;;;;;4990093;28;20526;-59
2021/10/21 09:37:22;;;;;;;4.40;3.15;;;21.30;54.30;;;;;;4987143;28;20157;-53
2021/10/21 09:39:52;;;;;;;4.45;2.72;;;21.30;54.20;;;;;;4982950;28;20039;-50
2021/10/21 09:42:23;;;;;;;4.13;2.88;;;21.30;54.20;;;;;;4987592;28;20042;-56
2021/10/21 09:44:48;;;;;;;4.70;3.30;;;21.30;54.70;;;;;;4988194;28;20039;-52
2021/10/21 09:47:20;;;;;;;4.95;2.92;;;21.30;54.20;;;;;;4987426;28;20037;-56
2021/10/21 09:49:47;;;;;;;4.63;2.80;;;21.30;54.20;;;;;;4983913;28;20031;-54
2021/10/21 09:52:18;;;;;;;4.00;2.80;;;21.30;54.20;;;;;;4981289;28;20085;-51
2021/10/21 09:54:46;;;;;;;4.78;3.08;;;21.30;54.20;;;;;;4982795;28;20027;-59
2021/10/21 09:57:18;;;;;;;3.58;2.50;;;21.30;54.20;;;;;;4987407;28;20054;-53
2021/10/21 10:00:03;;;;;;;4.28;2.63;;;21.30;54.20;;;;;;4980474;28;20467;-54
2021/10/21 10:02:34;;;;;;;4.10;2.78;;;21.30;54.20;;;;;;4982196;28;20399;-59
2021/10/21 10:05:04;;;;;;;4.63;2.75;;;21.30;54.20;;;;;;4989094;28;20019;-57
2021/10/21 10:07:30;;;;;;;4.43;2.85;;;21.30;54.20;;;;;;4987088;28;20024;-58
2021/10/21 10:09:59;;;;;;;3.53;2.50;;;21.30;54.20;;;;;;4986663;28;20491;-52
2021/10/21 10:12:30;;;;;;;4.25;2.65;;;21.30;54.20;;;;;;4980325;28;20627;-54
2021/10/21 10:14:57;;;;;;;4.10;2.50;;;21.30;54.20;;;;;;4984632;28;20031;-56
2021/10/21 10:17:24;;;;;;;3.92;2.60;;;21.30;54.20;;;;;;4987572;28;20054;-58
2021/10/21 10:19:50;;;;;;;3.88;2.50;;;21.30;54.20;;;;;;4988066;28;20104;-56
2021/10/21 10:22:29;;;;;;;3.25;2.38;;;21.30;54.20;;;;;;4984334;28;20138;-53
2021/10/21 10:24:56;;;;;;;3.75;2.70;;;21.30;54.20;;;;;;4987499;28;20475;-60
2021/10/21 10:27:28;;;;;;;4.30;2.70;;;21.30;54.20;;;;;;4986537;28;20050;-52
2021/10/21 10:29:55;;;;;;;3.90;2.58;;;21.30;54.20;;;;;;4984589;28;20062;-51
2021/10/21 10:32:43;;;;;;;4.00;2.70;;;21.30;54.30;;;;;;4980566;28;20072;-54
2021/10/21 10:35:32;;;;;;;4.20;2.92;;;21.30;54.30;;;;;;4988409;28;20038;-58
2021/10/21 10:38:03;;;;;;;4.05;2.75;;;21.30;54.20;;;;;;4983930;28;20050;-57
2021/10/21 10:40:42;;;;;;;3.92;2.60;;;21.30;54.20;;;;;;4981099;28;20034;-57
2021/10/21 10:43:09;;;;;;;4.65;3.00;;;21.30;54.20;;;;;;4983647;28;20080;-50
2021/10/21 10:45:39;;;;;;;4.10;2.80;;;21.30;54.20;;;;;;4988113;28;20034;-59
2021/10/21 10:48:05;;;;;;;4.75;2.67;;;21.30;54.30;;;;;;4973735;28;20035;-56
2021/10/21 10:50:34;;;;;;;3.60;2.40;;;21.30;54.30;;;;;;4981591;28;20038;-58
2021/10/21 10:53:01;;;;;;;4.07;2.60;;;21.30;54.30;;;;;;4976444;28;20098;-52
2021/10/21 10:55:40;;;;;;;3.80;2.50;;;21.30;54.30;;;;;;4978758;28;20073;-52
2021/10/21 10:58:10;;;;;;;3.63;2.47;;;21.30;54.30;;;;;;4981215;28;20034;-57
2021/10/21 11:00:38;;;;;;;3.78;2.55;;;21.30;54.30;;;;;;4987037;28;20443;-54
2021/10/21 11:03:06;;;;;;;3.80;2.38;;;21.30;54.30;;;;;;4983538;28;20065;-58
2021/10/21 11:06:04;;;;;;;4.00;2.60;;;21.30;54.30;;;;;;4981103;28;20030;-59
2021/10/21 11:08:48;;;;;;;4.20;2.70;;;21.30;54.30;;;;;;4971992;28;20042;-59
2021/10/21 11:11:38;;;;;;;4.15;2.60;;;21.30;54.30;;;;;;4984570;28;20030;-53
2021/10/21 11:14:15;;;;;;;3.72;2.40;;;21.30;54.30;;;;;;4980652;28;20762;-51
2021/10/21 11:16:45;;;;;;;3.10;2.38;;;21.30;54.30;;;;;;4984277;28;20034;-57
2021/10/21 11:19:13;;;;;;;4.97;2.85;;;21.30;54.30;;;;;;4980977;28;20500;-54
2021/10/21 11:21:46;;;;;;;3.90;2.53;;;21.30;54.30;;;;;;4982435;28;20122;-59
2021/10/21 11:24:47;;;;;;;3.97;2.50;;;21.30;54.40;;;;;;4986471;28;20146;-59
2021/10/21 11:27:14;;;;;;;3.65;2.33;;;21.30;54.40;;;;;;4983507;28;20069;-55
2021/10/21 11:29:40;;;;;;;3.85;2.40;;;21.20;54.30;;;;;;4988031;28;20030;-54
2021/10/21 11:32:07;;;;;;;3.38;2.30;;;21.30;54.90;;;;;;4983911;28;20106;-51
2021/10/21 11:34:34;;;;;;;3.55;2.25;;;21.30;54.40;;;;;;4986877;28;20041;-57
2021/10/21 11:37:00;;;;;;;3.65;2.60;;;21.30;54.40;;;;;;4980821;28;20030;-58
2021/10/21 11:39:33;;;;;;;4.15;2.50;;;21.30;54.40;;;;;;4992784;28;20386;-55
2021/10/21 11:42:07;;;;;;;3.92;2.40;;;21.30;54.40;;;;;;4977237;28;20038;-55
2021/10/21 11:44:33;;;;;;;3.90;2.28;;;21.30;54.40;;;;;;4974746;28;20066;-54
2021/10/21 11:47:02;;;;;;;4.18;2.30;;;21.30;54.40;;;;;;4984543;28;20449;-58
2021/10/21 11:49:29;;;;;;;3.70;2.40;;;21.30;54.40;;;;;;4977458;28;20180;-55
2021/10/21 11:52:08;;;;;;;3.40;2.38;;;21.20;54.40;;;;;;4983806;28;20475;-58
2021/10/21 11:54:35;;;;;;;;;;;21.20;54.40;;;;;;4984445;28;20033;-56
2021/10/21 11:57:01;;;;;;;3.65;2.22;;;21.30;54.40;;;;;;4983870;28;19910;-59
2021/10/21 11:59:38;;;;;;;3.80;2.28;;;21.30;54.40;;;;;;4983229;28;20454;-59
2021/10/21 12:02:18;;;;;;;4.03;2.55;;;21.30;54.40;;;;;;4979663;28;20074;-59
2021/10/21 12:04:45;;;;;;;3.78;2.40;;;21.20;54.40;;;;;;4982447;28;20057;-59
2021/10/21 12:07:12;;;;;;;4.15;2.22;;;21.20;54.40;;;;;;4986804;28;20069;-55
2021/10/21 12:09:40;;;;;;;4.95;2.88;;;21.20;54.40;;;;;;4982279;28;21053;-57
2021/10/21 12:12:08;;;;;;;4.43;2.20;;;21.30;54.50;;;;;;4988919;28;20775;-54
2021/10/21 12:14:37;;;;;;;3.80;2.55;;;21.30;54.50;;;;;;4989209;28;20034;-57
2021/10/21 12:17:07;;;;;;;3.83;2.40;;;21.30;54.50;;;;;;4985023;28;20038;-54
2021/10/21 12:19:32;;;;;;;;;;;21.20;54.40;;;;;;4987574;28;20518;-59
2021/10/21 12:22:18;;;;;;;3.92;2.40;;;21.20;54.40;;;;;;4979813;28;19918;-57
2021/10/21 12:24:46;;;;;;;3.35;2.03;;;21.20;54.40;;;;;;4987666;28;20030;-57
2021/10/21 12:27:20;;;;;;;3.33;2.20;;;21.30;54.50;;;;;;4988266;28;20109;-55
2021/10/21 12:29:46;;;;;;;3.97;2.20;;;21.20;54.40;;;;;;4989594;28;20327;-58
2021/10/21 12:32:15;;;;;;;4.25;2.47;;;21.20;54.40;;;;;;4980980;28;20477;-57
2021/10/21 12:34:42;;;;;;;3.90;2.40;;;21.30;54.50;;;;;;4990000;28;20030;-53
2021/10/21 12:37:15;;;;;;;3.60;2.03;;;21.30;54.50;;;;;;4986628;28;20275;-57
2021/10/21 12:39:41;;;;;;;2.88;2.17;;;21.20;54.50;;;;;;4987586;28;20408;-58
2021/10/21 12:42:09;;;;;;;3.15;1.98;;;21.20;54.50;;;;;;4984571;28;20112;-54
2021/10/21 12:44:40;;;;;;;3.55;2.20;;;21.20;54.50;;;;;;4979889;28;20023;-56
2021/10/21 12:47:19;;;;;;;4.22;2.20;;;21.20;54.50;;;;;;4982904;28;20047;-55
2021/10/21 12:49:54;;;;;;;;;;;21.20;54.50;;;;;;4988620;28;20038;-59